首页
METAR-TAF:

METAR-TAF

机场 :

里士满国际机场

里士满, 弗吉尼亚州, 美国

纬度: 37-30-40N, 经度: 077-19-24W, 海拔: 51米

当前天气观测

该预报发布于11分钟前的05:54 UTC
风速4节,风向东转东北
温度 17°C
湿度 82%
气压 1022 hPa
能見度: 16.1公里
阴天层高于1400英尺

METAR: KRIC 250554Z 07004KT 10SM OVC014 17/14 A3017 RMK AO2 SLP219 T01670144 10189 20167 58008

时间: 02:05 (06:05 UTC)

预报

该预报发布于5分钟前的06:00 UTC
预报有效从25日的 06点(UTC)到 26日的 06点(UTC)
风速4节,风向
能見度: 10公里
散云层高于600英尺
阴天层高于1400英尺
短暂存在
从 25日的 07点(UTC)到 25日的 09点(UTC)
多云层高于600英尺
阴天层高于1400英尺
从 25日的 0900点(UTC)
风速4节,风向
能見度: 10公里
阴天层高于600英尺
从 25日的 1200点(UTC)
风速4节,风向东北
能見度: 10公里
阴天层高于700英尺
从 25日的 1500点(UTC)
风速4节,风向东北
能見度: 10公里
阴天层高于1200英尺
从 25日的 1700点(UTC)
风速4节,风向东转东北
能見度: 10公里
多云层高于2000英尺
从 25日的 1900点(UTC)
风速4节,风向东转东北
能見度: 10公里
多云层高于3500英尺

TAF: KRIC 250600Z 2506/2606 08004KT P6SM SCT006 OVC014 TEMPO 2507/2509 BKN006 OVC014 FM250900 08004KT P6SM OVC006 FM251200 05004KT P6SM OVC007 FM251500 05004KT P6SM OVC012 FM251700 06004KT P6SM BKN020 FM251900 06004KT P6SM BKN035

超过4000个机场的气象观测和天气预报(METAR&TAF报告)。

可查询的气象台以黄色和红色小点在地图上表示。

将鼠标移到小点上方,可查看气象台名称。

然后点击查看天气观测和预报。

如需切换地图:点击带黑十字的绿色按钮放大地图;点击带横线的绿色按钮缩小地图;或者点击绿色箭头查看邻近地区的地图。


METAR-TAF: